Time;durP1;ratioP1;P1;durP2;ratioP2;P2;SDS_P1;SDS_P2;PMS_P1;PMS_P2;Temp;Humidity;BMP_temperature;BMP_pressure;BME280_temperature;BME280_humidity;BME280_pressure;Samples;Min_cycle;Max_cycle;Signal;HPM_P1;HPM_P2
2022/10/28 00:00:37;;;;;;;10.10;4.32;;;19.10;99.90;;;;;;4119112;28;20394;-64
2022/10/28 00:02:39;;;;;;;9.43;3.92;;;19.00;99.90;;;;;;4129017;28;20079;-64
2022/10/28 00:04:40;;;;;;;11.20;3.90;;;19.00;99.90;;;;;;4136117;28;20089;-64
2022/10/28 00:06:41;;;;;;;11.02;4.00;;;19.10;99.90;;;;;;4152932;28;20029;-64
2022/10/28 00:08:41;;;;;;;11.18;4.00;;;19.10;99.90;;;;;;4129916;28;20080;-67
2022/10/28 00:10:42;;;;;;;10.43;3.40;;;19.10;99.90;;;;;;4121071;28;20035;-64
2022/10/28 00:12:42;;;;;;;9.95;3.83;;;19.10;99.90;;;;;;4119589;28;20118;-65
2022/10/28 00:14:43;;;;;;;7.78;3.35;;;19.10;99.90;;;;;;4114371;28;20105;-65
2022/10/28 00:16:43;;;;;;;9.05;3.63;;;19.10;99.90;;;;;;4117690;28;20039;-64
2022/10/28 00:18:45;;;;;;;8.82;3.45;;;19.10;99.90;;;;;;4141874;28;20037;-64
2022/10/28 00:20:45;;;;;;;8.05;3.55;;;19.10;99.90;;;;;;4120508;28;20061;-64
2022/10/28 00:22:46;;;;;;;11.55;3.65;;;19.10;99.90;;;;;;4123222;28;20034;-65
2022/10/28 00:24:46;;;;;;;9.52;3.53;;;19.10;99.90;;;;;;4124383;28;20058;-64
2022/10/28 00:26:47;;;;;;;9.95;3.75;;;19.00;99.90;;;;;;4118018;28;20039;-64
2022/10/28 00:28:53;;;;;;;11.70;3.70;;;19.10;99.90;;;;;;4120745;28;20041;-64
2022/10/28 00:30:54;;;;;;;11.90;3.42;;;19.10;99.90;;;;;;4124576;28;20511;-64
2022/10/28 00:32:54;;;;;;;8.98;3.50;;;19.10;99.90;;;;;;4122963;28;20031;-64
2022/10/28 00:34:55;;;;;;;10.32;3.85;;;19.10;99.90;;;;;;4140921;28;20113;-65
2022/10/28 00:36:56;;;;;;;9.65;3.55;;;19.10;99.90;;;;;;4121805;28;20041;-64
2022/10/28 00:38:58;;;;;;;10.18;3.70;;;19.10;99.90;;;;;;4119390;28;21132;-65
2022/10/28 00:40:59;;;;;;;9.18;3.40;;;19.10;99.90;;;;;;4121863;28;20038;-64
2022/10/28 00:42:59;;;;;;;8.23;3.00;;;19.10;99.90;;;;;;4117703;28;20125;-65
2022/10/28 00:45:01;;;;;;;8.98;3.35;;;19.10;99.90;;;;;;4112849;28;20519;-65
2022/10/28 00:47:04;;;;;;;6.27;3.37;;;19.00;99.90;;;;;;4120467;28;20049;-64
2022/10/28 00:49:25;;;;;;;14.50;4.28;;;19.10;99.90;;;;;;4138458;28;20364;-65
2022/10/28 00:51:27;;;;;;;9.93;3.58;;;19.10;99.90;;;;;;4118258;28;20396;-64
2022/10/28 00:53:30;;;;;;;9.32;3.50;;;19.10;99.90;;;;;;4121769;28;20049;-64
2022/10/28 00:55:31;;;;;;;11.48;3.00;;;19.10;99.90;;;;;;4135204;28;20035;-65
2022/10/28 00:57:36;;;;;;;10.25;3.30;;;19.10;99.90;;;;;;4110692;28;20072;-64
2022/10/28 00:59:40;;;;;;;8.10;3.15;;;19.10;99.90;;;;;;4118508;28;20031;-64
2022/10/28 01:01:40;;;;;;;6.68;3.00;;;19.10;99.90;;;;;;4117206;28;20057;-64
2022/10/28 01:03:41;;;;;;;10.50;3.40;;;19.10;99.90;;;;;;4122839;28;20034;-64
2022/10/28 01:05:45;;;;;;;9.35;3.47;;;19.10;99.90;;;;;;4120009;28;20042;-65
2022/10/28 01:07:46;;;;;;;12.02;3.70;;;19.10;99.90;;;;;;4120080;28;20057;-65
2022/10/28 01:09:46;;;;;;;5.93;3.28;;;19.10;99.90;;;;;;4121227;28;20054;-64
2022/10/28 01:12:20;;;;;;;9.38;3.80;;;19.10;99.90;;;;;;4139104;28;20435;-64
2022/10/28 01:14:24;;;;;;;7.28;3.50;;;19.10;99.90;;;;;;4124185;28;20030;-65
2022/10/28 01:16:30;;;;;;;8.57;2.97;;;19.00;99.90;;;;;;4120570;28;20074;-65
2022/10/28 01:18:40;;;;;;;9.43;3.20;;;19.10;99.90;;;;;;4121466;28;20433;-65
2022/10/28 01:20:59;;;;;;;10.52;3.40;;;19.10;99.90;;;;;;4121169;28;20100;-65
2022/10/28 01:23:27;;;;;;;13.25;3.65;;;19.00;99.90;;;;;;4119721;28;20035;-64
2022/10/28 01:25:58;;;;;;;4.93;2.80;;;19.00;99.90;;;;;;4115080;28;20043;-65
2022/10/28 01:28:43;;;;;;;11.65;3.67;;;19.10;99.90;;;;;;4118256;28;20034;-70
2022/10/28 01:31:22;;;;;;;11.73;4.05;;;19.00;99.90;;;;;;4133124;28;20030;-65
2022/10/28 01:33:39;;;;;;;13.00;3.72;;;19.00;99.90;;;;;;4125054;28;20026;-65
2022/10/28 01:35:56;;;;;;;11.27;3.88;;;19.00;99.90;;;;;;4132415;28;20509;-64
2022/10/28 01:38:15;;;;;;;9.25;3.70;;;19.00;99.90;;;;;;4120586;28;20038;-65
2022/10/28 01:40:29;;;;;;;9.18;3.20;;;19.00;99.90;;;;;;4120105;28;20093;-65
2022/10/28 01:42:36;;;;;;;8.25;3.60;;;18.90;99.90;;;;;;4121216;28;20117;-65
2022/10/28 01:44:45;;;;;;;7.25;3.13;;;19.00;99.90;;;;;;4131903;28;20038;-64
2022/10/28 01:46:55;;;;;;;12.35;3.60;;;19.00;99.90;;;;;;4115819;28;20026;-65
2022/10/28 01:49:16;;;;;;;6.60;3.30;;;19.00;99.90;;;;;;4119070;28;20116;-64
2022/10/28 01:51:29;;;;;;;6.88;3.22;;;18.90;99.90;;;;;;4122227;28;20113;-64
2022/10/28 01:53:34;;;;;;;9.57;3.10;;;18.90;99.90;;;;;;4120935;28;20508;-64
2022/10/28 01:55:41;;;;;;;7.13;2.83;;;18.90;99.90;;;;;;4135173;28;20036;-66
2022/10/28 01:57:42;;;;;;;6.78;3.13;;;18.90;99.90;;;;;;4100663;28;20051;-65
2022/10/28 01:59:46;;;;;;;10.05;3.33;;;18.90;99.90;;;;;;4117216;28;20484;-66
2022/10/28 02:01:46;;;;;;;5.80;3.15;;;18.90;99.90;;;;;;4116122;28;20089;-65
2022/10/28 02:03:47;;;;;;;9.30;3.50;;;18.90;99.90;;;;;;4131982;28;20443;-64
2022/10/28 02:05:53;;;;;;;7.07;3.22;;;18.80;99.90;;;;;;4114910;28;20425;-64
2022/10/28 02:08:00;;;;;;;10.38;3.67;;;18.80;99.90;;;;;;4115511;28;20114;-64
2022/10/28 02:10:15;;;;;;;8.60;3.75;;;18.80;99.90;;;;;;4118974;28;20050;-66
2022/10/28 02:12:28;;;;;;;9.85;3.80;;;18.80;99.90;;;;;;4126769;28;20031;-64
2022/10/28 02:14:31;;;;;;;5.40;2.70;;;18.80;99.90;;;;;;4122850;28;20097;-64
2022/10/28 02:16:41;;;;;;;7.68;3.42;;;18.80;99.90;;;;;;4123152;28;20046;-64
2022/10/28 02:18:53;;;;;;;8.60;3.40;;;18.80;99.90;;;;;;4123346;28;20023;-67
2022/10/28 02:20:57;;;;;;;8.35;3.53;;;18.80;99.90;;;;;;4122605;28;20038;-65
2022/10/28 02:23:15;;;;;;;12.48;3.63;;;18.80;99.90;;;;;;4122483;28;20042;-64
2022/10/28 02:25:19;;;;;;;9.27;4.00;;;18.80;99.90;;;;;;4118644;28;20051;-66
2022/10/28 02:27:28;;;;;;;7.78;3.38;;;18.70;99.90;;;;;;4127444;28;20039;-64
2022/10/28 02:29:37;;;;;;;8.25;3.20;;;18.80;99.90;;;;;;4122972;28;20030;-71
2022/10/28 02:31:54;;;;;;;7.80;3.60;;;18.70;99.90;;;;;;4138020;28;20029;-70
2022/10/28 02:34:00;;;;;;;4.20;2.60;;;18.70;99.90;;;;;;4133202;28;20058;-70
2022/10/28 02:36:03;;;;;;;6.85;3.10;;;18.70;99.90;;;;;;4116776;28;20035;-70
2022/10/28 02:38:10;;;;;;;7.57;3.45;;;18.70;99.90;;;;;;4119951;28;20551;-70
2022/10/28 02:40:16;;;;;;;9.88;3.35;;;18.70;99.90;;;;;;4140507;28;20133;-70
2022/10/28 02:42:39;;;;;;;8.07;3.53;;;18.70;99.90;;;;;;4120775;28;20119;-70
2022/10/28 02:44:47;;;;;;;8.70;3.42;;;18.60;99.90;;;;;;4133316;28;20042;-70
2022/10/28 02:46:50;;;;;;;6.80;3.15;;;18.70;99.90;;;;;;4117760;28;20035;-70
2022/10/28 02:48:54;;;;;;;6.93;3.38;;;18.70;99.90;;;;;;4139619;28;20470;-77
2022/10/28 02:51:04;;;;;;;8.63;3.50;;;18.60;99.90;;;;;;4123105;28;20030;-77
2022/10/28 02:53:17;;;;;;;8.45;3.10;;;18.60;99.90;;;;;;4144847;28;20034;-78
2022/10/28 02:55:21;;;;;;;6.30;3.53;;;18.60;99.90;;;;;;4119948;28;20035;-76
2022/10/28 02:57:25;;;;;;;7.10;3.05;;;18.60;99.90;;;;;;4143728;28;20040;-75
2022/10/28 02:59:28;;;;;;;8.30;3.60;;;18.60;99.90;;;;;;4125584;28;20034;-77
2022/10/28 03:01:28;;;;;;;8.30;3.55;;;18.60;99.90;;;;;;4122783;28;20026;-77
2022/10/28 03:03:29;;;;;;;11.75;3.50;;;18.50;99.90;;;;;;4134438;28;20031;-78
2022/10/28 03:05:29;;;;;;;9.13;3.75;;;18.50;99.90;;;;;;4122497;28;20427;-78
2022/10/28 03:07:30;;;;;;;11.13;3.30;;;18.50;99.90;;;;;;4127316;28;20464;-70
2022/10/28 03:09:30;;;;;;;9.77;3.05;;;18.50;99.90;;;;;;4121811;28;20393;-76
2022/10/28 03:11:31;;;;;;;10.50;3.33;;;18.50;99.90;;;;;;4125572;28;20038;-77
2022/10/28 03:13:32;;;;;;;9.10;3.72;;;18.50;99.90;;;;;;4128765;28;20502;-77
2022/10/28 03:15:32;;;;;;;10.40;3.70;;;18.50;99.90;;;;;;4122938;28;20193;-77
2022/10/28 03:17:33;;;;;;;8.05;3.70;;;18.50;99.90;;;;;;4120063;28;20022;-78
2022/10/28 03:19:33;;;;;;;7.47;3.55;;;18.50;99.90;;;;;;4121074;28;20058;-77
2022/10/28 03:21:34;;;;;;;8.32;3.95;;;18.50;99.90;;;;;;4119556;28;20030;-77
2022/10/28 03:23:35;;;;;;;13.20;4.35;;;18.50;99.90;;;;;;4124405;28;20365;-78
2022/10/28 03:25:35;;;;;;;7.15;3.30;;;18.50;99.90;;;;;;4137943;28;20450;-77
2022/10/28 03:27:40;;;;;;;10.40;3.35;;;18.40;99.90;;;;;;4125723;28;20030;-78
2022/10/28 03:29:40;;;;;;;8.00;3.55;;;18.40;99.90;;;;;;4124983;28;20035;-78
2022/10/28 03:31:41;;;;;;;12.82;3.60;;;18.40;99.90;;;;;;4140174;28;20458;-78
2022/10/28 03:33:42;;;;;;;6.57;2.92;;;18.40;99.90;;;;;;4126547;28;20404;-77
2022/10/28 03:35:43;;;;;;;6.88;3.60;;;18.40;99.90;;;;;;4141617;28;20021;-77
2022/10/28 03:37:44;;;;;;;10.55;3.95;;;18.30;99.90;;;;;;4125488;28;20042;-75
2022/10/28 03:39:44;;;;;;;8.80;3.75;;;18.40;99.90;;;;;;4122215;28;20038;-76
2022/10/28 03:41:45;;;;;;;9.98;3.40;;;18.30;99.90;;;;;;4140122;28;20034;-77
2022/10/28 03:43:45;;;;;;;10.07;3.97;;;18.30;99.90;;;;;;4116047;28;20043;-77
2022/10/28 03:45:46;;;;;;;9.68;3.90;;;18.30;99.90;;;;;;4129565;28;20036;-75
2022/10/28 03:47:47;;;;;;;6.07;3.70;;;18.30;99.90;;;;;;4127675;28;20169;-77
2022/10/28 03:49:48;;;;;;;9.15;3.58;;;18.30;99.90;;;;;;4124187;28;20431;-77
2022/10/28 03:51:48;;;;;;;14.18;4.50;;;18.30;99.90;;;;;;4124282;28;20023;-77
2022/10/28 03:53:49;;;;;;;14.35;3.85;;;18.30;99.90;;;;;;4125993;28;20049;-77
2022/10/28 03:55:57;;;;;;;9.88;3.70;;;18.30;99.90;;;;;;4125925;28;20085;-77
2022/10/28 03:58:01;;;;;;;11.95;3.60;;;18.30;99.90;;;;;;4106982;28;20170;-78
2022/10/28 04:00:03;;;;;;;7.47;3.70;;;18.30;99.90;;;;;;4122726;28;20039;-74
2022/10/28 04:02:03;;;;;;;11.52;4.05;;;18.30;99.90;;;;;;4135702;28;20487;-73
2022/10/28 04:04:04;;;;;;;12.45;3.60;;;18.20;99.90;;;;;;4127694;28;20122;-77
2022/10/28 04:06:05;;;;;;;6.38;3.13;;;18.20;99.90;;;;;;4126385;28;20054;-77
2022/10/28 04:08:05;;;;;;;8.32;3.63;;;18.20;99.90;;;;;;4141871;28;20040;-78
2022/10/28 04:10:06;;;;;;;7.05;3.15;;;18.20;99.90;;;;;;4120106;28;20554;-73
2022/10/28 04:12:09;;;;;;;11.25;3.65;;;18.30;99.90;;;;;;4124366;28;20109;-77
2022/10/28 04:14:10;;;;;;;10.73;3.70;;;18.20;99.90;;;;;;4123776;28;20414;-78
2022/10/28 04:16:10;;;;;;;9.30;3.90;;;18.20;99.90;;;;;;4122160;28;20047;-77
2022/10/28 04:18:11;;;;;;;9.35;3.60;;;18.20;99.90;;;;;;4123977;28;20038;-78
2022/10/28 04:20:11;;;;;;;8.43;3.60;;;18.20;99.90;;;;;;4120833;28;20038;-76
2022/10/28 04:22:12;;;;;;;7.78;3.40;;;18.20;99.90;;;;;;4120613;28;20043;-76
2022/10/28 04:24:13;;;;;;;8.55;3.50;;;18.20;99.90;;;;;;4127515;28;20515;-78
2022/10/28 04:26:14;;;;;;;6.45;3.28;;;18.20;99.90;;;;;;4121926;28;20034;-77
2022/10/28 04:28:14;;;;;;;12.40;3.47;;;18.20;99.90;;;;;;4121813;28;20049;-75
2022/10/28 04:30:15;;;;;;;8.65;3.15;;;18.20;99.90;;;;;;4121906;28;20042;-75
2022/10/28 04:32:16;;;;;;;11.48;4.22;;;18.10;99.90;;;;;;4140046;28;20502;-77
2022/10/28 04:34:17;;;;;;;8.63;4.00;;;18.10;99.90;;;;;;4125306;28;20026;-76
2022/10/28 04:36:18;;;;;;;11.73;3.83;;;18.10;99.90;;;;;;4124884;28;20039;-78
2022/10/28 04:38:18;;;;;;;9.98;3.92;;;18.10;99.90;;;;;;4125020;28;20134;-78
2022/10/28 04:40:19;;;;;;;11.48;3.75;;;18.00;99.90;;;;;;4136758;28;20518;-77
2022/10/28 04:42:21;;;;;;;7.50;3.65;;;18.00;99.90;;;;;;4121788;28;20125;-75
2022/10/28 04:44:22;;;;;;;15.95;4.68;;;18.00;99.90;;;;;;4122797;28;20066;-77
2022/10/28 04:46:22;;;;;;;10.82;3.75;;;18.00;99.90;;;;;;4124751;28;20495;-74
2022/10/28 04:48:23;;;;;;;9.02;3.75;;;17.90;99.90;;;;;;4123170;28;20027;-78
2022/10/28 04:50:23;;;;;;;9.05;3.70;;;18.00;99.90;;;;;;4122490;28;20038;-77
2022/10/28 04:52:24;;;;;;;9.82;3.70;;;18.00;99.90;;;;;;4124189;28;20484;-78
2022/10/28 04:54:26;;;;;;;11.65;4.30;;;17.90;99.90;;;;;;4120584;28;20026;-76
2022/10/28 04:56:27;;;;;;;7.47;3.55;;;17.90;99.90;;;;;;4113039;28;20031;-78
2022/10/28 04:58:28;;;;;;;7.05;3.83;;;17.90;99.90;;;;;;4118666;28;20029;-78
2022/10/28 05:00:29;;;;;;;10.00;4.50;;;17.90;99.90;;;;;;4123188;28;20495;-76
2022/10/28 05:02:30;;;;;;;7.05;3.50;;;17.90;99.90;;;;;;4124713;28;20026;-78
2022/10/28 05:04:30;;;;;;;11.35;4.10;;;17.90;99.90;;;;;;4123342;28;20555;-77
2022/10/28 05:06:31;;;;;;;18.27;5.00;;;17.90;99.90;;;;;;4113340;28;20031;-78
2022/10/28 05:08:31;;;;;;;8.93;3.45;;;17.90;99.90;;;;;;4124045;28;20127;-79
2022/10/28 05:10:32;;;;;;;11.73;4.35;;;17.90;99.90;;;;;;4117346;28;20026;-71
2022/10/28 05:12:33;;;;;;;8.50;3.85;;;17.90;99.90;;;;;;4137069;28;20042;-76
2022/10/28 05:14:33;;;;;;;11.45;4.03;;;17.80;99.90;;;;;;4123451;28;20035;-73
2022/10/28 05:16:34;;;;;;;11.02;3.83;;;17.80;99.90;;;;;;4117668;28;20066;-73
2022/10/28 05:18:34;;;;;;;9.43;3.80;;;17.80;99.90;;;;;;4136046;28;20125;-74
2022/10/28 05:20:35;;;;;;;9.93;3.60;;;17.80;99.90;;;;;;4118287;28;20049;-74
2022/10/28 05:22:36;;;;;;;8.93;4.13;;;17.80;99.90;;;;;;4120398;28;20034;-76
2022/10/28 05:24:37;;;;;;;6.70;3.30;;;17.80;99.90;;;;;;4123306;28;20045;-74
2022/10/28 05:26:37;;;;;;;12.57;4.32;;;17.80;99.90;;;;;;4122139;28;20046;-76
2022/10/28 05:28:38;;;;;;;9.15;3.78;;;17.90;99.90;;;;;;4135599;28;20466;-78
2022/10/28 05:30:38;;;;;;;6.40;3.67;;;17.80;99.90;;;;;;4121182;28;20121;-74
2022/10/28 05:32:39;;;;;;;12.05;3.72;;;17.80;99.90;;;;;;4120584;28;20492;-77
2022/10/28 05:34:40;;;;;;;12.30;4.50;;;17.80;99.90;;;;;;4120801;28;20043;-77
2022/10/28 05:36:40;;;;;;;12.60;4.28;;;17.80;99.90;;;;;;4125253;28;20403;-76
2022/10/28 05:38:44;;;;;;;7.93;3.90;;;17.80;99.90;;;;;;4123417;28;20105;-77
2022/10/28 05:40:44;;;;;;;12.27;4.18;;;17.90;99.90;;;;;;4120445;28;20035;-78
2022/10/28 05:42:45;;;;;;;12.45;4.18;;;17.80;99.90;;;;;;4127580;28;20586;-72
2022/10/28 05:44:45;;;;;;;10.90;3.70;;;17.90;99.90;;;;;;4120420;28;20672;-73
2022/10/28 05:46:46;;;;;;;11.77;3.90;;;17.90;99.90;;;;;;4121244;28;20481;-74
2022/10/28 05:48:47;;;;;;;9.77;3.75;;;17.90;99.90;;;;;;4119136;28;20483;-73
2022/10/28 05:50:48;;;;;;;10.35;3.75;;;17.80;99.90;;;;;;4119692;28;20038;-71
2022/10/28 05:52:50;;;;;;;10.77;4.43;;;17.80;99.90;;;;;;4121831;28;20062;-72
2022/10/28 05:54:51;;;;;;;11.20;4.55;;;17.80;99.90;;;;;;4116759;28;21019;-71
2022/10/28 05:56:51;;;;;;;11.98;4.05;;;17.80;99.90;;;;;;4133403;28;20042;-74
2022/10/28 05:58:52;;;;;;;6.00;3.20;;;17.80;99.90;;;;;;4122423;28;20653;-74
2022/10/28 06:00:52;;;;;;;12.38;5.18;;;17.80;99.90;;;;;;4120591;28;20385;-74
2022/10/28 06:03:08;;;;;;;12.23;4.60;;;17.90;99.90;;;;;;4119199;28;20504;-74
2022/10/28 06:05:10;;;;;;;11.55;4.13;;;17.90;99.90;;;;;;4120999;28;20523;-74
2022/10/28 06:07:10;;;;;;;11.65;4.90;;;17.90;99.90;;;;;;4119675;28;20038;-71
2022/10/28 06:09:11;;;;;;;5.55;3.35;;;17.90;99.90;;;;;;4121983;28;20105;-73
2022/10/28 06:11:12;;;;;;;8.07;3.90;;;17.90;99.90;;;;;;4136391;28;20060;-70
2022/10/28 06:13:12;;;;;;;7.80;3.70;;;17.90;99.90;;;;;;4124420;28;20043;-74
2022/10/28 06:15:13;;;;;;;8.70;3.70;;;17.90;99.90;;;;;;4120468;28;20412;-71
2022/10/28 06:17:13;;;;;;;7.57;3.90;;;17.90;99.90;;;;;;4122530;28;20042;-72
2022/10/28 06:19:14;;;;;;;14.38;4.47;;;17.90;99.90;;;;;;4122655;28;20515;-73
2022/10/28 06:21:14;;;;;;;9.20;3.45;;;17.80;99.90;;;;;;4122314;28;20046;-71
2022/10/28 06:23:15;;;;;;;12.15;4.07;;;17.90;99.90;;;;;;4122459;28;20031;-73
2022/10/28 06:25:16;;;;;;;13.90;3.88;;;17.80;99.90;;;;;;4119349;28;20042;-74
2022/10/28 06:27:17;;;;;;;9.38;3.90;;;17.90;99.90;;;;;;4122664;28;20145;-74
2022/10/28 06:29:19;;;;;;;11.68;4.20;;;17.80;99.90;;;;;;4121211;28;20055;-74
2022/10/28 06:31:19;;;;;;;13.95;3.80;;;17.80;99.90;;;;;;4121526;28;20070;-73
2022/10/28 06:33:20;;;;;;;11.75;3.65;;;17.80;99.90;;;;;;4136701;28;20045;-71
2022/10/28 06:35:21;;;;;;;9.52;3.83;;;17.80;99.90;;;;;;4120431;28;20038;-73
2022/10/28 06:37:21;;;;;;;9.27;3.90;;;17.80;99.90;;;;;;4121201;28;20126;-73
2022/10/28 06:39:22;;;;;;;14.15;4.47;;;17.80;99.90;;;;;;4122110;28;20133;-73
2022/10/28 06:41:22;;;;;;;10.82;3.80;;;17.80;99.90;;;;;;4137118;28;20687;-74
2022/10/28 06:43:23;;;;;;;16.17;4.85;;;17.80;99.90;;;;;;4135520;28;20038;-70
2022/10/28 06:45:24;;;;;;;9.63;4.25;;;17.80;99.90;;;;;;4121523;28;20053;-73
2022/10/28 06:47:24;;;;;;;11.00;4.22;;;17.80;99.90;;;;;;4117940;28;20396;-69
2022/10/28 06:49:26;;;;;;;9.52;4.43;;;17.80;99.90;;;;;;4117847;28;20448;-70
2022/10/28 06:51:26;;;;;;;20.58;4.63;;;17.80;99.90;;;;;;4121476;28;20065;-74
2022/10/28 06:53:27;;;;;;;11.30;4.30;;;17.90;99.90;;;;;;4121959;28;20117;-73
2022/10/28 06:55:29;;;;;;;13.45;4.32;;;17.90;99.90;;;;;;4120109;28;20039;-73
2022/10/28 06:57:30;;;;;;;10.43;4.22;;;17.90;99.90;;;;;;4123181;28;20546;-70
2022/10/28 06:59:30;;;;;;;9.60;3.75;;;17.90;99.90;;;;;;4120217;28;20047;-73
2022/10/28 07:01:31;;;;;;;11.98;3.97;;;17.90;99.90;;;;;;4122507;28;20050;-71
2022/10/28 07:03:31;;;;;;;10.65;4.20;;;17.90;99.90;;;;;;4124641;28;20043;-73
2022/10/28 07:05:32;;;;;;;15.30;3.95;;;17.90;99.90;;;;;;4122698;28;20037;-69
2022/10/28 07:07:36;;;;;;;13.00;4.07;;;18.00;99.90;;;;;;4124788;28;20034;-74
2022/10/28 07:09:38;;;;;;;10.63;3.88;;;18.00;99.90;;;;;;4139317;28;20033;-73
2022/10/28 07:11:42;;;;;;;8.18;3.47;;;18.00;99.90;;;;;;4128842;28;20558;-73
2022/10/28 07:13:43;;;;;;;12.50;4.53;;;18.00;99.90;;;;;;4124400;28;20083;-74
2022/10/28 07:15:43;;;;;;;13.77;4.18;;;18.00;99.90;;;;;;4124453;28;20042;-73
2022/10/28 07:17:44;;;;;;;11.25;4.10;;;18.00;99.90;;;;;;4125336;28;20026;-73
2022/10/28 07:19:44;;;;;;;10.10;4.03;;;18.00;99.90;;;;;;4122669;28;20066;-72
2022/10/28 07:21:47;;;;;;;10.73;4.15;;;18.10;99.90;;;;;;4122186;28;20046;-73
2022/10/28 07:23:47;;;;;;;13.65;3.92;;;18.10;99.90;;;;;;4123440;28;20385;-74
2022/10/28 07:25:53;;;;;;;11.32;4.25;;;18.10;99.90;;;;;;4136858;28;20121;-72
2022/10/28 07:27:56;;;;;;;10.80;3.88;;;18.20;99.90;;;;;;4124226;28;24637;-73
2022/10/28 07:29:56;;;;;;;14.55;4.30;;;18.20;99.90;;;;;;4125213;28;20045;-73
2022/10/28 07:31:57;;;;;;;9.60;4.60;;;18.20;99.90;;;;;;4123059;28;20018;-72
2022/10/28 07:33:57;;;;;;;9.80;4.72;;;18.30;99.90;;;;;;4124277;28;20697;-74
2022/10/28 07:36:01;;;;;;;9.07;4.00;;;18.30;99.90;;;;;;4125718;28;20030;-74
2022/10/28 07:38:01;;;;;;;10.10;4.20;;;18.30;99.90;;;;;;4125836;28;20093;-73
2022/10/28 07:40:02;;;;;;;10.27;4.20;;;18.40;99.90;;;;;;4123645;28;20042;-74
2022/10/28 07:42:03;;;;;;;11.98;4.55;;;18.50;99.90;;;;;;4137769;28;20038;-71
2022/10/28 07:44:03;;;;;;;12.40;4.85;;;18.50;99.90;;;;;;4124940;28;20126;-74
2022/10/28 07:46:06;;;;;;;11.52;4.35;;;18.60;99.90;;;;;;4136210;28;20049;-68
2022/10/28 07:48:06;;;;;;;12.15;3.97;;;18.70;99.90;;;;;;4124344;28;20121;-73
2022/10/28 07:50:08;;;;;;;9.75;4.20;;;18.70;99.90;;;;;;4136501;28;20104;-73
2022/10/28 07:52:09;;;;;;;10.43;4.00;;;18.80;99.90;;;;;;4122895;28;20061;-72
2022/10/28 07:54:09;;;;;;;11.80;3.60;;;18.90;99.90;;;;;;4123573;28;20339;-73
2022/10/28 07:56:14;;;;;;;8.70;3.15;;;18.90;99.90;;;;;;4121592;28;20091;-75
2022/10/28 07:58:14;;;;;;;12.70;3.88;;;19.00;99.90;;;;;;4125651;28;20534;-74
2022/10/28 08:00:15;;;;;;;7.00;3.80;;;19.00;99.90;;;;;;4122086;28;20027;-73
2022/10/28 08:02:19;;;;;;;11.98;3.90;;;19.10;99.90;;;;;;4123769;28;20093;-73
2022/10/28 08:04:19;;;;;;;11.90;4.28;;;19.10;99.90;;;;;;4124446;28;20042;-74
2022/10/28 08:06:20;;;;;;;10.07;3.88;;;19.10;99.90;;;;;;4124228;28;20038;-73
2022/10/28 08:08:21;;;;;;;11.32;4.15;;;19.20;99.90;;;;;;4138614;28;20125;-74
2022/10/28 08:10:21;;;;;;;11.23;3.67;;;19.20;99.90;;;;;;4122575;28;20781;-74
2022/10/28 08:12:22;;;;;;;10.13;4.18;;;19.30;99.90;;;;;;4124315;28;20388;-73
2022/10/28 08:14:23;;;;;;;12.00;3.72;;;19.30;99.90;;;;;;4124258;28;20042;-75
2022/10/28 08:16:24;;;;;;;11.68;3.50;;;19.40;99.90;;;;;;4122938;28;20516;-75
2022/10/28 08:18:24;;;;;;;10.73;3.38;;;19.50;99.90;;;;;;4124453;28;20080;-74
2022/10/28 08:20:25;;;;;;;8.77;3.38;;;19.60;99.90;;;;;;4137456;28;20288;-73
2022/10/28 08:22:25;;;;;;;7.90;3.08;;;19.80;99.90;;;;;;4123787;28;20039;-71
2022/10/28 08:24:26;;;;;;;8.60;3.75;;;20.00;99.90;;;;;;4126925;28;20045;-74
2022/10/28 08:26:26;;;;;;;11.52;3.35;;;20.00;99.90;;;;;;4137215;28;20364;-74
2022/10/28 08:28:27;;;;;;;9.25;4.15;;;20.20;99.90;;;;;;4123909;28;20442;-72
2022/10/28 08:30:28;;;;;;;14.90;3.70;;;20.30;99.90;;;;;;4122582;28;20045;-74
2022/10/28 08:32:28;;;;;;;8.93;3.88;;;20.40;99.90;;;;;;4123814;28;20810;-74
2022/10/28 08:34:30;;;;;;;8.77;3.72;;;20.50;99.90;;;;;;4127007;28;20057;-71
2022/10/28 08:36:31;;;;;;;12.05;4.35;;;20.70;99.90;;;;;;4122209;28;20050;-74
2022/10/28 08:38:31;;;;;;;11.52;3.60;;;20.90;99.90;;;;;;4124760;28;20034;-74
2022/10/28 08:40:56;;;;;;;12.65;3.60;;;21.00;99.90;;;;;;4133512;28;20582;-73
2022/10/28 08:43:10;;;;;;;9.70;3.45;;;21.10;99.90;;;;;;4121540;28;20066;-74
2022/10/28 08:45:20;;;;;;;9.23;3.20;;;21.30;99.90;;;;;;4119922;28;20058;-73
2022/10/28 08:47:44;;;;;;;8.65;3.28;;;21.40;99.90;;;;;;4137558;28;20037;-74
2022/10/28 08:49:47;;;;;;;13.30;3.80;;;21.60;99.90;;;;;;4122077;28;20444;-74
2022/10/28 08:51:55;;;;;;;9.10;3.10;;;21.70;99.90;;;;;;4133105;28;20041;-74
2022/10/28 08:53:59;;;;;;;9.75;3.15;;;21.80;99.90;;;;;;4136925;28;20045;-74
2022/10/28 08:56:28;;;;;;;9.65;3.45;;;21.90;99.90;;;;;;4120032;28;20129;-73
2022/10/28 08:58:33;;;;;;;14.27;3.92;;;22.00;99.90;;;;;;4135571;28;20126;-75
2022/10/28 09:00:35;;;;;;;13.85;3.90;;;22.00;99.90;;;;;;4120132;28;20042;-74
2022/10/28 09:03:04;;;;;;;10.98;3.05;;;22.20;99.90;;;;;;4120838;28;20813;-74
2022/10/28 09:05:21;;;;;;;9.05;3.67;;;22.20;99.90;;;;;;4121633;28;20046;-74
2022/10/28 09:07:23;;;;;;;9.55;3.35;;;22.30;99.90;;;;;;4120741;28;20053;-73
2022/10/28 09:09:24;;;;;;;13.63;3.67;;;22.30;99.90;;;;;;4137618;28;20042;-74
2022/10/28 09:11:45;;;;;;;10.20;3.35;;;22.40;99.90;;;;;;4138832;28;20130;-74
2022/10/28 09:14:06;;;;;;;10.82;3.17;;;22.50;99.90;;;;;;4137197;28;20526;-73
2022/10/28 09:16:15;;;;;;;8.63;3.20;;;22.50;99.90;;;;;;4136508;28;20132;-74
2022/10/28 09:18:21;;;;;;;9.70;3.38;;;22.60;99.90;;;;;;4139866;28;20069;-74
2022/10/28 09:20:42;;;;;;;11.98;3.95;;;22.70;99.90;;;;;;4136877;28;20407;-74
2022/10/28 09:22:57;;;;;;;11.88;3.03;;;22.80;99.90;;;;;;4137191;28;20042;-72
2022/10/28 09:25:00;;;;;;;8.98;3.40;;;22.80;99.90;;;;;;4138584;28;20045;-72
2022/10/28 09:27:08;;;;;;;11.95;3.72;;;22.80;99.90;;;;;;4122339;28;20241;-74
2022/10/28 09:29:20;;;;;;;9.82;3.15;;;22.70;99.90;;;;;;4120674;28;20103;-71
2022/10/28 09:31:43;;;;;;;6.13;2.78;;;22.70;99.90;;;;;;4137196;28;20069;-70
2022/10/28 09:34:10;;;;;;;12.60;3.35;;;22.80;99.90;;;;;;4123517;28;20049;-71
2022/10/28 09:36:23;;;;;;;16.50;4.60;;;22.80;99.90;;;;;;4121286;28;20046;-73
2022/10/28 09:38:30;;;;;;;12.65;3.75;;;22.70;99.90;;;;;;4121864;28;20027;-73
2022/10/28 09:40:34;;;;;;;11.60;3.58;;;22.80;99.90;;;;;;4121404;28;20042;-73
2022/10/28 09:42:41;;;;;;;10.60;2.92;;;22.80;99.90;;;;;;4122429;28;20039;-73
2022/10/28 09:44:58;;;;;;;11.15;3.45;;;22.90;99.90;;;;;;4122313;28;20054;-72
2022/10/28 09:47:02;;;;;;;8.88;3.47;;;22.90;99.90;;;;;;4121069;28;20046;-71
2022/10/28 09:49:09;;;;;;;13.55;4.15;;;23.00;99.90;;;;;;4121648;28;20037;-73
2022/10/28 09:51:22;;;;;;;13.05;4.00;;;23.00;99.90;;;;;;4120877;28;20736;-74
2022/10/28 09:53:45;;;;;;;;;;;23.00;99.90;;;;;;4115725;28;21162;-73
2022/10/28 09:55:45;;;;;;;16.30;3.95;;;23.00;99.90;;;;;;4119829;28;19924;-74
2022/10/28 09:57:46;;;;;;;8.43;3.60;;;22.90;99.90;;;;;;4121785;28;20117;-72
2022/10/28 09:59:47;;;;;;;10.63;3.55;;;22.90;99.90;;;;;;4121217;28;20125;-73
2022/10/28 10:01:47;;;;;;;16.15;4.47;;;22.90;99.90;;;;;;4137060;28;20092;-73
2022/10/28 10:03:50;;;;;;;16.55;4.10;;;22.90;99.90;;;;;;4123167;28;20399;-73
2022/10/28 10:05:52;;;;;;;;;;;22.90;99.90;;;;;;4137716;28;20033;-73
2022/10/28 10:07:56;;;;;;;15.82;3.72;;;22.80;99.90;;;;;;4118159;28;20379;-73
2022/10/28 10:09:59;;;;;;;10.85;3.30;;;22.90;99.90;;;;;;4121782;28;20058;-74
2022/10/28 10:12:09;;;;;;;9.43;3.30;;;22.80;99.90;;;;;;4137116;28;20026;-73
2022/10/28 10:14:13;;;;;;;10.65;3.50;;;22.80;99.90;;;;;;4138481;28;20672;-73
2022/10/28 10:16:22;;;;;;;10.82;3.13;;;22.80;99.90;;;;;;4136124;28;20150;-73
2022/10/28 10:18:28;;;;;;;9.05;3.08;;;22.80;99.90;;;;;;4140798;28;20164;-72
2022/10/28 10:20:46;;;;;;;13.27;3.92;;;22.80;99.90;;;;;;4133086;28;20095;-73
2022/10/28 10:22:48;;;;;;;14.27;3.20;;;22.80;99.90;;;;;;4127626;28;20080;-73
2022/10/28 10:24:49;;;;;;;9.55;3.50;;;22.70;99.90;;;;;;4122619;28;20031;-73
2022/10/28 10:26:51;;;;;;;8.77;3.35;;;22.70;99.90;;;;;;4119727;28;20400;-73
2022/10/28 10:28:52;;;;;;;15.10;4.03;;;22.70;99.90;;;;;;4121077;28;20046;-71
2022/10/28 10:30:58;;;;;;;8.00;3.50;;;22.70;99.90;;;;;;4120550;28;20122;-73
2022/10/28 10:33:00;;;;;;;9.75;3.10;;;22.70;99.90;;;;;;4123849;28;20045;-73
2022/10/28 10:35:39;;;;;;;11.05;3.33;;;22.70;99.90;;;;;;4123376;28;20563;-73
2022/10/28 10:37:43;;;;;;;14.82;3.58;;;22.80;99.90;;;;;;4125217;28;20057;-73
2022/10/28 10:39:44;;;;;;;18.70;4.38;;;22.80;99.90;;;;;;4141000;28;20038;-71
2022/10/28 10:41:44;;;;;;;9.25;3.20;;;22.80;99.90;;;;;;4124396;28;20255;-73
2022/10/28 10:43:45;;;;;;;12.00;3.67;;;22.80;99.90;;;;;;4124649;28;20402;-71